sensor_id;sensor_type;location;lat;lon;timestamp;pressure;altitude;pressure_sealevel;temperature;humidity
25759;BME280;13604;52.496;13.456;2023-03-13T00:01:53;100237.28;;;4.61;100.00
25759;BME280;13604;52.496;13.456;2023-03-13T00:04:18;100265.50;;;4.73;100.00
25759;BME280;13604;52.496;13.456;2023-03-13T00:06:44;100264.06;;;4.78;100.00
25759;BME280;13604;52.496;13.456;2023-03-13T00:09:11;100266.94;;;4.83;100.00
25759;BME280;13604;52.496;13.456;2023-03-13T00:11:37;100269.91;;;4.89;100.00
25759;BME280;13604;52.496;13.456;2023-03-13T00:14:03;100260.47;;;4.89;100.00
25759;BME280;13604;52.496;13.456;2023-03-13T00:16:29;100247.56;;;4.89;100.00
25759;BME280;13604;52.496;13.456;2023-03-13T00:18:55;100261.22;;;5.02;100.00
25759;BME280;13604;52.496;13.456;2023-03-13T00:21:23;100256.66;;;4.97;100.00
25759;BME280;13604;52.496;13.456;2023-03-13T00:23:49;100253.63;;;5.05;100.00
25759;BME280;13604;52.496;13.456;2023-03-13T00:26:16;100239.22;;;5.08;100.00
25759;BME280;13604;52.496;13.456;2023-03-13T00:28:42;100249.00;;;5.14;100.00
25759;BME280;13604;52.496;13.456;2023-03-13T00:31:17;100243.84;;;5.14;100.00
25759;BME280;13604;52.496;13.456;2023-03-13T00:33:46;100245.09;;;5.21;100.00
25759;BME280;13604;52.496;13.456;2023-03-13T00:36:14;100236.66;;;5.23;100.00
25759;BME280;13604;52.496;13.456;2023-03-13T00:38:40;100240.66;;;5.33;100.00
25759;BME280;13604;52.496;13.456;2023-03-13T00:41:11;100248.66;;;5.38;100.00
25759;BME280;13604;52.496;13.456;2023-03-13T00:43:37;100233.59;;;5.45;100.00
25759;BME280;13604;52.496;13.456;2023-03-13T00:46:03;100200.84;;;5.29;100.00
25759;BME280;13604;52.496;13.456;2023-03-13T00:48:29;100206.81;;;5.28;100.00
25759;BME280;13604;52.496;13.456;2023-03-13T00:50:54;100204.44;;;5.31;100.00
25759;BME280;13604;52.496;13.456;2023-03-13T00:53:20;100194.81;;;5.29;100.00
25759;BME280;13604;52.496;13.456;2023-03-13T00:55:58;100212.84;;;5.44;100.00
25759;BME280;13604;52.496;13.456;2023-03-13T00:58:26;100209.56;;;5.46;100.00
25759;BME280;13604;52.496;13.456;2023-03-13T01:00:52;100205.13;;;5.44;100.00
25759;BME280;13604;52.496;13.456;2023-03-13T01:03:18;100185.63;;;5.34;100.00
25759;BME280;13604;52.496;13.456;2023-03-13T01:05:43;100208.66;;;5.46;100.00
25759;BME280;13604;52.496;13.456;2023-03-13T01:08:08;100190.50;;;5.29;100.00
25759;BME280;13604;52.496;13.456;2023-03-13T01:10:34;100194.97;;;5.32;100.00
25759;BME280;13604;52.496;13.456;2023-03-13T01:12:59;100201.81;;;5.46;100.00
25759;BME280;13604;52.496;13.456;2023-03-13T01:15:25;100201.28;;;5.37;100.00
25759;BME280;13604;52.496;13.456;2023-03-13T01:17:50;100200.50;;;5.38;100.00
25759;BME280;13604;52.496;13.456;2023-03-13T01:20:16;100197.00;;;5.38;100.00
25759;BME280;13604;52.496;13.456;2023-03-13T01:22:41;100186.44;;;5.18;100.00
25759;BME280;13604;52.496;13.456;2023-03-13T01:25:07;100200.41;;;5.37;100.00
25759;BME280;13604;52.496;13.456;2023-03-13T01:27:32;100190.88;;;5.35;100.00
25759;BME280;13604;52.496;13.456;2023-03-13T01:29:57;100200.31;;;5.35;100.00
25759;BME280;13604;52.496;13.456;2023-03-13T01:32:23;100196.84;;;5.34;100.00
25759;BME280;13604;52.496;13.456;2023-03-13T01:34:48;100200.50;;;5.38;100.00
25759;BME280;13604;52.496;13.456;2023-03-13T01:37:13;100205.75;;;5.40;100.00
25759;BME280;13604;52.496;13.456;2023-03-13T01:39:39;100197.75;;;5.35;100.00
25759;BME280;13604;52.496;13.456;2023-03-13T01:42:07;100206.63;;;5.40;100.00
25759;BME280;13604;52.496;13.456;2023-03-13T01:44:52;100204.31;;;5.45;100.00
25759;BME280;13604;52.496;13.456;2023-03-13T01:47:18;100192.03;;;5.41;100.00
25759;BME280;13604;52.496;13.456;2023-03-13T01:49:45;100194.59;;;5.41;100.00
25759;BME280;13604;52.496;13.456;2023-03-13T01:52:17;100193.53;;;5.37;100.00
25759;BME280;13604;52.496;13.456;2023-03-13T01:54:52;100181.09;;;5.30;100.00
25759;BME280;13604;52.496;13.456;2023-03-13T01:57:24;100176.13;;;5.33;100.00
25759;BME280;13604;52.496;13.456;2023-03-13T02:00:03;100177.88;;;5.34;100.00
25759;BME280;13604;52.496;13.456;2023-03-13T02:02:32;100165.06;;;5.21;100.00
25759;BME280;13604;52.496;13.456;2023-03-13T02:05:00;100175.38;;;5.35;100.00
25759;BME280;13604;52.496;13.456;2023-03-13T02:07:37;100176.34;;;5.38;100.00
25759;BME280;13604;52.496;13.456;2023-03-13T02:10:04;100155.09;;;5.27;100.00
25759;BME280;13604;52.496;13.456;2023-03-13T02:12:32;100165.59;;;5.30;100.00
25759;BME280;13604;52.496;13.456;2023-03-13T02:15:01;100156.94;;;5.29;100.00
25759;BME280;13604;52.496;13.456;2023-03-13T02:17:28;100151.88;;;5.31;100.00
25759;BME280;13604;52.496;13.456;2023-03-13T02:19:54;100141.22;;;5.25;100.00
25759;BME280;13604;52.496;13.456;2023-03-13T02:22:39;100143.91;;;5.26;100.00
25759;BME280;13604;52.496;13.456;2023-03-13T02:27:51;100142.63;;;5.20;100.00
25759;BME280;13604;52.496;13.456;2023-03-13T02:30:19;100114.16;;;5.03;100.00
25759;BME280;13604;52.496;13.456;2023-03-13T02:32:45;100133.13;;;5.19;100.00
25759;BME280;13604;52.496;13.456;2023-03-13T02:35:14;100133.72;;;5.14;100.00
25759;BME280;13604;52.496;13.456;2023-03-13T02:37:47;100129.47;;;5.15;100.00
25759;BME280;13604;52.496;13.456;2023-03-13T02:40:17;100128.56;;;5.14;100.00
25759;BME280;13604;52.496;13.456;2023-03-13T02:42:45;100121.56;;;5.12;100.00
25759;BME280;13604;52.496;13.456;2023-03-13T02:45:13;100117.19;;;5.11;100.00
25759;BME280;13604;52.496;13.456;2023-03-13T02:47:39;100092.13;;;5.08;100.00
25759;BME280;13604;52.496;13.456;2023-03-13T02:50:05;100084.63;;;4.98;100.00
25759;BME280;13604;52.496;13.456;2023-03-13T02:52:32;100109.72;;;5.15;100.00
25759;BME280;13604;52.496;13.456;2023-03-13T02:55:06;100106.00;;;5.10;100.00
25759;BME280;13604;52.496;13.456;2023-03-13T02:57:33;100108.66;;;5.12;100.00
25759;BME280;13604;52.496;13.456;2023-03-13T02:59:59;100090.59;;;5.12;100.00
25759;BME280;13604;52.496;13.456;2023-03-13T03:02:25;100092.97;;;5.24;100.00
25759;BME280;13604;52.496;13.456;2023-03-13T03:04:50;100080.75;;;5.21;100.00
25759;BME280;13604;52.496;13.456;2023-03-13T03:07:15;100084.25;;;5.22;100.00
25759;BME280;13604;52.496;13.456;2023-03-13T03:09:40;100066.00;;;5.19;100.00
25759;BME280;13604;52.496;13.456;2023-03-13T03:12:06;100074.00;;;5.23;100.00
25759;BME280;13604;52.496;13.456;2023-03-13T03:14:32;100048.91;;;5.21;100.00
25759;BME280;13604;52.496;13.456;2023-03-13T03:16:57;100060.53;;;5.29;100.00
25759;BME280;13604;52.496;13.456;2023-03-13T03:19:22;100053.59;;;5.28;100.00
25759;BME280;13604;52.496;13.456;2023-03-13T03:21:48;100050.22;;;5.29;100.00
25759;BME280;13604;52.496;13.456;2023-03-13T03:24:14;100060.06;;;5.36;100.00
25759;BME280;13604;52.496;13.456;2023-03-13T03:26:39;100063.00;;;5.42;100.00
25759;BME280;13604;52.496;13.456;2023-03-13T03:29:04;100065.75;;;5.45;100.00
25759;BME280;13604;52.496;13.456;2023-03-13T03:31:31;100063.16;;;5.45;100.00
25759;BME280;13604;52.496;13.456;2023-03-13T03:33:57;100049.38;;;5.45;100.00
25759;BME280;13604;52.496;13.456;2023-03-13T03:36:22;100058.41;;;5.53;100.00
25759;BME280;13604;52.496;13.456;2023-03-13T03:38:48;100052.28;;;5.51;100.00
25759;BME280;13604;52.496;13.456;2023-03-13T03:41:14;100055.59;;;5.48;100.00
25759;BME280;13604;52.496;13.456;2023-03-13T03:43:40;100049.75;;;5.52;100.00
25759;BME280;13604;52.496;13.456;2023-03-13T03:46:06;100036.28;;;5.42;100.00
25759;BME280;13604;52.496;13.456;2023-03-13T03:48:31;100039.84;;;5.44;100.00
25759;BME280;13604;52.496;13.456;2023-03-13T03:50:57;100012.72;;;5.35;100.00
25759;BME280;13604;52.496;13.456;2023-03-13T03:53:22;100028.88;;;5.48;100.00
25759;BME280;13604;52.496;13.456;2023-03-13T03:55:48;100027.09;;;5.47;100.00
25759;BME280;13604;52.496;13.456;2023-03-13T03:58:13;100021.34;;;5.52;100.00
25759;BME280;13604;52.496;13.456;2023-03-13T04:00:38;100010.47;;;5.42;100.00
25759;BME280;13604;52.496;13.456;2023-03-13T04:03:06;99992.31;;;5.40;100.00
25759;BME280;13604;52.496;13.456;2023-03-13T04:05:32;100004.97;;;5.52;100.00
25759;BME280;13604;52.496;13.456;2023-03-13T04:07:57;100007.03;;;5.58;100.00
25759;BME280;13604;52.496;13.456;2023-03-13T04:10:22;99995.59;;;5.54;100.00
25759;BME280;13604;52.496;13.456;2023-03-13T04:12:48;99983.97;;;5.46;100.00
25759;BME280;13604;52.496;13.456;2023-03-13T04:15:13;99988.28;;;5.62;100.00
25759;BME280;13604;52.496;13.456;2023-03-13T04:17:38;99983.53;;;5.53;100.00
25759;BME280;13604;52.496;13.456;2023-03-13T04:20:04;99992.06;;;5.68;100.00
25759;BME280;13604;52.496;13.456;2023-03-13T04:22:30;99987.66;;;5.66;100.00
25759;BME280;13604;52.496;13.456;2023-03-13T04:24:56;99979.41;;;5.73;100.00
25759;BME280;13604;52.496;13.456;2023-03-13T04:27:21;99966.81;;;5.63;100.00
25759;BME280;13604;52.496;13.456;2023-03-13T04:29:46;99979.41;;;5.73;100.00
25759;BME280;13604;52.496;13.456;2023-03-13T04:32:12;99955.81;;;5.67;100.00
25759;BME280;13604;52.496;13.456;2023-03-13T04:34:37;99950.91;;;5.71;100.00
25759;BME280;13604;52.496;13.456;2023-03-13T04:37:02;99951.84;;;5.74;100.00
25759;BME280;13604;52.496;13.456;2023-03-13T04:39:33;99953.81;;;5.78;100.00
25759;BME280;13604;52.496;13.456;2023-03-13T04:41:58;99950.63;;;5.83;100.00
25759;BME280;13604;52.496;13.456;2023-03-13T04:44:24;99950.47;;;5.80;100.00
25759;BME280;13604;52.496;13.456;2023-03-13T04:46:49;99934.25;;;5.83;100.00
25759;BME280;13604;52.496;13.456;2023-03-13T04:49:14;99946.50;;;5.87;100.00
25759;BME280;13604;52.496;13.456;2023-03-13T04:51:43;99926.19;;;5.77;100.00
25759;BME280;13604;52.496;13.456;2023-03-13T04:54:10;99933.97;;;5.95;100.00
25759;BME280;13604;52.496;13.456;2023-03-13T04:56:35;99926.97;;;5.92;100.00
25759;BME280;13604;52.496;13.456;2023-03-13T04:59:01;99927.28;;;5.98;100.00
25759;BME280;13604;52.496;13.456;2023-03-13T05:01:26;99919.47;;;5.97;100.00
25759;BME280;13604;52.496;13.456;2023-03-13T05:03:51;99894.38;;;5.78;100.00
25759;BME280;13604;52.496;13.456;2023-03-13T05:06:17;99893.06;;;5.86;100.00
25759;BME280;13604;52.496;13.456;2023-03-13T05:08:42;99909.94;;;5.96;100.00
25759;BME280;13604;52.496;13.456;2023-03-13T05:11:07;99874.31;;;5.90;100.00
25759;BME280;13604;52.496;13.456;2023-03-13T05:13:33;99869.81;;;5.86;100.00
25759;BME280;13604;52.496;13.456;2023-03-13T05:15:58;99890.84;;;5.94;100.00
25759;BME280;13604;52.496;13.456;2023-03-13T05:18:23;99879.56;;;5.92;100.00
25759;BME280;13604;52.496;13.456;2023-03-13T05:20:49;99866.41;;;5.87;100.00
25759;BME280;13604;52.496;13.456;2023-03-13T05:23:14;99864.31;;;5.80;100.00
25759;BME280;13604;52.496;13.456;2023-03-13T05:25:39;99842.16;;;5.67;100.00
25759;BME280;13604;52.496;13.456;2023-03-13T05:28:05;99833.75;;;5.71;100.00
25759;BME280;13604;52.496;13.456;2023-03-13T05:30:30;99858.81;;;5.90;100.00
25759;BME280;13604;52.496;13.456;2023-03-13T05:32:56;99857.69;;;5.85;100.00
25759;BME280;13604;52.496;13.456;2023-03-13T05:35:21;99860.50;;;5.89;100.00
25759;BME280;13604;52.496;13.456;2023-03-13T05:37:46;99841.94;;;5.80;100.00
25759;BME280;13604;52.496;13.456;2023-03-13T05:40:12;99843.81;;;5.83;100.00
25759;BME280;13604;52.496;13.456;2023-03-13T05:42:38;99841.00;;;5.78;100.00
25759;BME280;13604;52.496;13.456;2023-03-13T05:45:03;99821.47;;;5.67;100.00
25759;BME280;13604;52.496;13.456;2023-03-13T05:47:28;99826.38;;;5.79;100.00
25759;BME280;13604;52.496;13.456;2023-03-13T05:49:54;99827.13;;;5.76;100.00
25759;BME280;13604;52.496;13.456;2023-03-13T05:52:19;99817.75;;;5.78;100.00
25759;BME280;13604;52.496;13.456;2023-03-13T05:54:44;99816.03;;;5.79;100.00
25759;BME280;13604;52.496;13.456;2023-03-13T05:57:10;99795.00;;;5.71;100.00
25759;BME280;13604;52.496;13.456;2023-03-13T05:59:35;99781.88;;;5.66;100.00
25759;BME280;13604;52.496;13.456;2023-03-13T06:02:00;99745.69;;;5.48;100.00
25759;BME280;13604;52.496;13.456;2023-03-13T06:04:26;99791.09;;;5.79;100.00
25759;BME280;13604;52.496;13.456;2023-03-13T06:06:51;99789.47;;;5.81;100.00
25759;BME280;13604;52.496;13.456;2023-03-13T06:09:16;99774.41;;;5.72;100.00
25759;BME280;13604;52.496;13.456;2023-03-13T06:11:41;99784.47;;;5.84;100.00
25759;BME280;13604;52.496;13.456;2023-03-13T06:14:07;99789.56;;;5.83;100.00
25759;BME280;13604;52.496;13.456;2023-03-13T06:16:33;99791.38;;;5.85;100.00
25759;BME280;13604;52.496;13.456;2023-03-13T06:18:58;99778.53;;;5.87;100.00
25759;BME280;13604;52.496;13.456;2023-03-13T06:21:23;99782.75;;;5.85;100.00
25759;BME280;13604;52.496;13.456;2023-03-13T06:23:49;99768.69;;;5.96;100.00
25759;BME280;13604;52.496;13.456;2023-03-13T06:26:14;99737.81;;;5.81;100.00
25759;BME280;13604;52.496;13.456;2023-03-13T06:28:39;99766.97;;;5.97;100.00
25759;BME280;13604;52.496;13.456;2023-03-13T06:31:06;99760.81;;;5.95;100.00
25759;BME280;13604;52.496;13.456;2023-03-13T06:33:32;99749.63;;;5.94;100.00
25759;BME280;13604;52.496;13.456;2023-03-13T06:35:59;99740.16;;;5.95;100.00
25759;BME280;13604;52.496;13.456;2023-03-13T06:38:26;99738.38;;;5.94;100.00
25759;BME280;13604;52.496;13.456;2023-03-13T06:40:52;99707.53;;;5.79;100.00
25759;BME280;13604;52.496;13.456;2023-03-13T06:43:18;99726.63;;;5.99;100.00
25759;BME280;13604;52.496;13.456;2023-03-13T06:45:43;99719.34;;;6.10;100.00
25759;BME280;13604;52.496;13.456;2023-03-13T06:48:08;99710.72;;;6.09;100.00
25759;BME280;13604;52.496;13.456;2023-03-13T06:50:37;99674.59;;;5.93;100.00
25759;BME280;13604;52.496;13.456;2023-03-13T06:53:03;99696.16;;;6.11;100.00
25759;BME280;13604;52.496;13.456;2023-03-13T06:55:28;99690.97;;;6.11;100.00
25759;BME280;13604;52.496;13.456;2023-03-13T06:57:53;99646.16;;;5.93;100.00
25759;BME280;13604;52.496;13.456;2023-03-13T07:00:23;99659.34;;;5.97;100.00
25759;BME280;13604;52.496;13.456;2023-03-13T07:02:49;99685.09;;;6.14;100.00
25759;BME280;13604;52.496;13.456;2023-03-13T07:05:15;99677.31;;;6.14;100.00
25759;BME280;13604;52.496;13.456;2023-03-13T07:07:41;99673.03;;;6.14;100.00
25759;BME280;13604;52.496;13.456;2023-03-13T07:10:07;99678.34;;;6.17;100.00
25759;BME280;13604;52.496;13.456;2023-03-13T07:12:36;99659.97;;;6.11;100.00
25759;BME280;13604;52.496;13.456;2023-03-13T07:15:02;99669.34;;;6.09;100.00
25759;BME280;13604;52.496;13.456;2023-03-13T07:17:28;99660.97;;;6.15;100.00
25759;BME280;13604;52.496;13.456;2023-03-13T07:19:53;99670.72;;;6.20;100.00
25759;BME280;13604;52.496;13.456;2023-03-13T07:22:18;99644.16;;;6.05;100.00
25759;BME280;13604;52.496;13.456;2023-03-13T07:24:44;99664.13;;;6.27;100.00
25759;BME280;13604;52.496;13.456;2023-03-13T07:27:09;99664.34;;;6.32;100.00
25759;BME280;13604;52.496;13.456;2023-03-13T07:29:34;99628.22;;;6.14;100.00
25759;BME280;13604;52.496;13.456;2023-03-13T07:31:59;99651.28;;;6.29;100.00
25759;BME280;13604;52.496;13.456;2023-03-13T07:34:25;99659.19;;;6.32;100.00
25759;BME280;13604;52.496;13.456;2023-03-13T07:36:50;99651.50;;;6.33;100.00
25759;BME280;13604;52.496;13.456;2023-03-13T07:39:15;99653.53;;;6.40;100.00
25759;BME280;13604;52.496;13.456;2023-03-13T07:41:41;99645.13;;;6.46;100.00
25759;BME280;13604;52.496;13.456;2023-03-13T07:44:06;99646.97;;;6.49;100.00
25759;BME280;13604;52.496;13.456;2023-03-13T07:46:31;99629.69;;;6.48;100.00
25759;BME280;13604;52.496;13.456;2023-03-13T07:48:57;99642.81;;;6.52;100.00
25759;BME280;13604;52.496;13.456;2023-03-13T07:51:24;99622.00;;;6.49;100.00
25759;BME280;13604;52.496;13.456;2023-03-13T07:53:50;99620.41;;;6.53;100.00
25759;BME280;13604;52.496;13.456;2023-03-13T07:56:17;99610.91;;;6.52;100.00
25759;BME280;13604;52.496;13.456;2023-03-13T07:58:43;99600.75;;;6.56;100.00
25759;BME280;13604;52.496;13.456;2023-03-13T08:01:09;99608.81;;;6.64;100.00
25759;BME280;13604;52.496;13.456;2023-03-13T08:03:35;99606.31;;;6.66;100.00
25759;BME280;13604;52.496;13.456;2023-03-13T08:06:09;99588.13;;;6.64;100.00
25759;BME280;13604;52.496;13.456;2023-03-13T08:08:36;99599.50;;;6.68;100.00
25759;BME280;13604;52.496;13.456;2023-03-13T08:11:03;99590.13;;;6.70;100.00
25759;BME280;13604;52.496;13.456;2023-03-13T08:13:30;99591.69;;;6.66;100.00
25759;BME280;13604;52.496;13.456;2023-03-13T08:16:13;99594.66;;;6.75;100.00
25759;BME280;13604;52.496;13.456;2023-03-13T08:18:44;99580.78;;;6.73;100.00
25759;BME280;13604;52.496;13.456;2023-03-13T08:21:12;99580.06;;;6.77;100.00
25759;BME280;13604;52.496;13.456;2023-03-13T08:23:37;99556.69;;;6.74;100.00
25759;BME280;13604;52.496;13.456;2023-03-13T08:28:29;99572.50;;;6.82;100.00
25759;BME280;13604;52.496;13.456;2023-03-13T08:30:54;99563.47;;;6.93;100.00
25759;BME280;13604;52.496;13.456;2023-03-13T08:33:20;99564.28;;;6.92;100.00
25759;BME280;13604;52.496;13.456;2023-03-13T08:35:45;99545.41;;;6.95;100.00
25759;BME280;13604;52.496;13.456;2023-03-13T08:38:10;99558.56;;;6.99;100.00
25759;BME280;13604;52.496;13.456;2023-03-13T08:40:36;99558.81;;;7.06;100.00
25759;BME280;13604;52.496;13.456;2023-03-13T08:43:02;99543.09;;;7.01;100.00
25759;BME280;13604;52.496;13.456;2023-03-13T08:45:27;99523.38;;;6.84;100.00
25759;BME280;13604;52.496;13.456;2023-03-13T08:47:52;99540.56;;;7.03;100.00
25759;BME280;13604;52.496;13.456;2023-03-13T08:50:18;99554.50;;;7.06;100.00
25759;BME280;13604;52.496;13.456;2023-03-13T08:52:44;99520.47;;;6.97;100.00
25759;BME280;13604;52.496;13.456;2023-03-13T08:55:10;99537.44;;;7.11;100.00
25759;BME280;13604;52.496;13.456;2023-03-13T08:57:35;99512.09;;;7.03;100.00
25759;BME280;13604;52.496;13.456;2023-03-13T09:00:00;99536.63;;;7.12;100.00
25759;BME280;13604;52.496;13.456;2023-03-13T09:02:26;99493.97;;;7.03;100.00
25759;BME280;13604;52.496;13.456;2023-03-13T09:04:51;99524.63;;;7.14;100.00
25759;BME280;13604;52.496;13.456;2023-03-13T09:07:16;99517.97;;;7.21;100.00
25759;BME280;13604;52.496;13.456;2023-03-13T09:09:42;99502.31;;;7.18;100.00
25759;BME280;13604;52.496;13.456;2023-03-13T09:12:07;99507.91;;;7.29;100.00
25759;BME280;13604;52.496;13.456;2023-03-13T09:14:33;99502.69;;;7.27;100.00
25759;BME280;13604;52.496;13.456;2023-03-13T09:16:58;99495.13;;;7.33;100.00
25759;BME280;13604;52.496;13.456;2023-03-13T09:19:23;99498.78;;;7.39;100.00
25759;BME280;13604;52.496;13.456;2023-03-13T09:21:49;99488.94;;;7.30;100.00
25759;BME280;13604;52.496;13.456;2023-03-13T09:24:14;99504.38;;;7.49;100.00
25759;BME280;13604;52.496;13.456;2023-03-13T09:26:40;99506.03;;;7.47;100.00
25759;BME280;13604;52.496;13.456;2023-03-13T09:29:05;99501.06;;;7.53;100.00
25759;BME280;13604;52.496;13.456;2023-03-13T09:31:31;99491.59;;;7.54;100.00
25759;BME280;13604;52.496;13.456;2023-03-13T09:33:57;99495.16;;;7.58;100.00
25759;BME280;13604;52.496;13.456;2023-03-13T09:36:23;99497.81;;;7.59;100.00
25759;BME280;13604;52.496;13.456;2023-03-13T09:38:50;99505.66;;;7.61;100.00
25759;BME280;13604;52.496;13.456;2023-03-13T09:49:37;99496.56;;;7.72;100.00
25759;BME280;13604;52.496;13.456;2023-03-13T09:52:15;99492.31;;;7.74;100.00
25759;BME280;13604;52.496;13.456;2023-03-13T09:55:03;99488.91;;;7.75;100.00
25759;BME280;13604;52.496;13.456;2023-03-13T09:57:44;99481.06;;;7.73;100.00
25759;BME280;13604;52.496;13.456;2023-03-13T10:00:13;99483.09;;;7.82;100.00
25759;BME280;13604;52.496;13.456;2023-03-13T10:02:44;99480.69;;;7.87;100.00
25759;BME280;13604;52.496;13.456;2023-03-13T10:05:22;99483.44;;;7.91;100.00
25759;BME280;13604;52.496;13.456;2023-03-13T10:07:49;99478.25;;;7.91;100.00
25759;BME280;13604;52.496;13.456;2023-03-13T10:10:20;99489.09;;;8.05;100.00
25759;BME280;13604;52.496;13.456;2023-03-13T10:12:51;99499.53;;;8.07;100.00
25759;BME280;13604;52.496;13.456;2023-03-13T10:15:33;99479.81;;;8.12;100.00
25759;BME280;13604;52.496;13.456;2023-03-13T10:18:17;99473.59;;;8.07;100.00
25759;BME280;13604;52.496;13.456;2023-03-13T10:20:45;99484.25;;;8.15;100.00
25759;BME280;13604;52.496;13.456;2023-03-13T10:23:37;99467.94;;;8.19;100.00
25759;BME280;13604;52.496;13.456;2023-03-13T10:26:03;99460.06;;;8.16;100.00
25759;BME280;13604;52.496;13.456;2023-03-13T10:28:29;99472.88;;;8.37;100.00
25759;BME280;13604;52.496;13.456;2023-03-13T10:31:19;99460.31;;;8.47;100.00
25759;BME280;13604;52.496;13.456;2023-03-13T10:33:47;99459.47;;;8.48;100.00
25759;BME280;13604;52.496;13.456;2023-03-13T10:36:13;99451.28;;;8.62;100.00
25759;BME280;13604;52.496;13.456;2023-03-13T10:38:47;99463.81;;;8.75;100.00
25759;BME280;13604;52.496;13.456;2023-03-13T10:41:29;99459.63;;;8.80;100.00
25759;BME280;13604;52.496;13.456;2023-03-13T10:44:02;99451.06;;;8.83;100.00
25759;BME280;13604;52.496;13.456;2023-03-13T10:46:33;99453.25;;;8.98;100.00
25759;BME280;13604;52.496;13.456;2023-03-13T10:49:03;99441.50;;;9.11;100.00
25759;BME280;13604;52.496;13.456;2023-03-13T10:51:39;99421.53;;;9.08;100.00
25759;BME280;13604;52.496;13.456;2023-03-13T10:54:28;99431.34;;;9.49;100.00
25759;BME280;13604;52.496;13.456;2023-03-13T10:57:08;99432.66;;;9.97;100.00
25759;BME280;13604;52.496;13.456;2023-03-13T10:59:39;99415.16;;;10.58;100.00
25759;BME280;13604;52.496;13.456;2023-03-13T11:04:47;99396.13;;;10.60;100.00
25759;BME280;13604;52.496;13.456;2023-03-13T11:07:25;99410.16;;;10.67;100.00
25759;BME280;13604;52.496;13.456;2023-03-13T11:09:58;99407.69;;;10.35;100.00
25759;BME280;13604;52.496;13.456;2023-03-13T11:12:25;99410.13;;;10.65;100.00
25759;BME280;13604;52.496;13.456;2023-03-13T11:14:58;99399.75;;;10.67;100.00
25759;BME280;13604;52.496;13.456;2023-03-13T11:17:35;99404.44;;;11.23;100.00
25759;BME280;13604;52.496;13.456;2023-03-13T11:20:06;99379.41;;;12.81;100.00
25759;BME280;13604;52.496;13.456;2023-03-13T11:22:48;99379.75;;;13.76;89.51
25759;BME280;13604;52.496;13.456;2023-03-13T11:25:22;99378.03;;;13.78;89.66
25759;BME280;13604;52.496;13.456;2023-03-13T11:28:14;99381.38;;;12.97;92.16
25759;BME280;13604;52.496;13.456;2023-03-13T11:30:53;99389.03;;;12.83;94.43
25759;BME280;13604;52.496;13.456;2023-03-13T11:33:35;99378.88;;;13.03;92.29
25759;BME280;13604;52.496;13.456;2023-03-13T11:36:17;99374.47;;;13.01;90.34
25759;BME280;13604;52.496;13.456;2023-03-13T11:38:48;99367.84;;;12.62;90.98
25759;BME280;13604;52.496;13.456;2023-03-13T11:41:44;99367.69;;;12.52;91.59
25759;BME280;13604;52.496;13.456;2023-03-13T11:44:21;99370.78;;;12.85;90.54
25759;BME280;13604;52.496;13.456;2023-03-13T11:47:11;99374.78;;;13.24;87.95
25759;BME280;13604;52.496;13.456;2023-03-13T11:49:50;99341.94;;;13.46;85.90
25759;BME280;13604;52.496;13.456;2023-03-13T11:52:37;99358.03;;;13.85;84.51
25759;BME280;13604;52.496;13.456;2023-03-13T11:58:16;99374.47;;;13.02;88.17
25759;BME280;13604;52.496;13.456;2023-03-13T12:00:47;99362.81;;;12.77;89.92
25759;BME280;13604;52.496;13.456;2023-03-13T12:03:18;99388.53;;;13.07;88.29
25759;BME280;13604;52.496;13.456;2023-03-13T12:05:52;99342.97;;;12.88;88.55
25759;BME280;13604;52.496;13.456;2023-03-13T12:08:22;99372.19;;;13.24;87.62
25759;BME280;13604;52.496;13.456;2023-03-13T12:11:02;99354.69;;;13.21;87.69
25759;BME280;13604;52.496;13.456;2023-03-13T12:13:31;99350.41;;;13.28;87.31
25759;BME280;13604;52.496;13.456;2023-03-13T12:16:01;99331.69;;;13.68;84.55
25759;BME280;13604;52.496;13.456;2023-03-13T12:18:34;99321.94;;;14.54;81.43
25759;BME280;13604;52.496;13.456;2023-03-13T12:21:05;99342.19;;;14.72;79.76
25759;BME280;13604;52.496;13.456;2023-03-13T12:24:02;99337.84;;;14.82;79.09
25759;BME280;13604;52.496;13.456;2023-03-13T12:26:46;99346.41;;;14.56;80.75
25759;BME280;13604;52.496;13.456;2023-03-13T12:29:52;99350.91;;;14.74;78.60
25759;BME280;13604;52.496;13.456;2023-03-13T12:32:36;99336.25;;;15.10;78.13
25759;BME280;13604;52.496;13.456;2023-03-13T12:35:17;99333.72;;;15.45;77.16
25759;BME280;13604;52.496;13.456;2023-03-13T12:40:33;99327.44;;;17.39;67.30
25759;BME280;13604;52.496;13.456;2023-03-13T12:43:18;99341.09;;;18.09;63.65
25759;BME280;13604;52.496;13.456;2023-03-13T12:48:56;99305.38;;;17.66;65.41
25759;BME280;13604;52.496;13.456;2023-03-13T12:51:46;99318.13;;;18.22;62.20
25759;BME280;13604;52.496;13.456;2023-03-13T12:57:09;99300.63;;;19.03;58.77
25759;BME280;13604;52.496;13.456;2023-03-13T12:59:40;99297.53;;;20.96;54.18
25759;BME280;13604;52.496;13.456;2023-03-13T13:02:20;99294.47;;;19.65;56.39
25759;BME280;13604;52.496;13.456;2023-03-13T13:04:47;99296.72;;;19.32;58.31
25759;BME280;13604;52.496;13.456;2023-03-13T13:12:36;99296.56;;;20.53;53.33
25759;BME280;13604;52.496;13.456;2023-03-13T13:15:15;99299.63;;;20.80;53.49
25759;BME280;13604;52.496;13.456;2023-03-13T13:17:48;99282.28;;;20.64;53.77
25759;BME280;13604;52.496;13.456;2023-03-13T13:20:25;99282.56;;;22.12;49.09
25759;BME280;13604;52.496;13.456;2023-03-13T13:22:50;99291.03;;;21.55;50.18
25759;BME280;13604;52.496;13.456;2023-03-13T13:32:46;99269.22;;;17.93;61.85
25759;BME280;13604;52.496;13.456;2023-03-13T13:37:38;99281.44;;;21.49;51.66